createdAt,value
2022-11-28T00:01:41.147Z,19.10
2022-11-28T00:04:09.672Z,13.93
2022-11-28T00:06:38.972Z,15.82
2022-11-28T00:09:08.098Z,14.93
2022-11-28T00:11:36.169Z,18.20
2022-11-28T00:14:05.705Z,14.82
2022-11-28T00:16:33.887Z,15.95
2022-11-28T00:19:02.972Z,17.33
2022-11-28T00:21:31.313Z,16.38
2022-11-28T00:24:00.351Z,16.60
2022-11-28T00:26:31.251Z,19.02
2022-11-28T00:29:00.589Z,15.35
2022-11-28T00:31:32.873Z,18.05
2022-11-28T00:34:02.033Z,15.18
2022-11-28T00:36:31.172Z,15.35
2022-11-28T00:38:59.177Z,14.95
2022-11-28T00:41:29.588Z,17.20
2022-11-28T00:43:58.654Z,15.60
2022-11-28T00:46:26.953Z,16.27
2022-11-28T00:48:56.362Z,17.67
2022-11-28T00:51:25.844Z,13.40
2022-11-28T00:53:55.838Z,15.82
2022-11-28T00:56:25.463Z,15.65
2022-11-28T00:58:54.168Z,15.70
2022-11-28T01:01:24.327Z,16.02
2022-11-28T01:03:53.584Z,14.93
2022-11-28T01:06:25.200Z,16.77
2022-11-28T01:08:54.009Z,16.13
2022-11-28T01:11:22.563Z,17.55
2022-11-28T01:13:51.289Z,15.13
2022-11-28T01:16:19.427Z,15.75
2022-11-28T01:18:47.501Z,14.38
2022-11-28T01:21:15.797Z,17.23
2022-11-28T01:23:45.176Z,14.80
2022-11-28T01:26:18.424Z,15.88
2022-11-28T01:28:46.528Z,14.35
2022-11-28T01:31:17.859Z,15.55
2022-11-28T01:33:46.128Z,15.30
2022-11-28T01:36:15.473Z,17.10
2022-11-28T01:38:45.580Z,15.02
2022-11-28T01:41:14.204Z,16.25
2022-11-28T01:44:01.381Z,16.73
2022-11-28T01:46:30.166Z,14.32
2022-11-28T01:49:02.440Z,14.52
2022-11-28T01:51:31.338Z,16.83
2022-11-28T01:54:01.364Z,15.45
2022-11-28T01:56:36.185Z,16.73
2022-11-28T01:59:08.627Z,15.57
2022-11-28T02:01:36.946Z,16.23
2022-11-28T02:04:05.884Z,17.70
2022-11-28T02:06:34.312Z,14.43
2022-11-28T02:09:03.769Z,17.92
2022-11-28T02:11:53.366Z,16.67
2022-11-28T02:14:37.072Z,15.10
2022-11-28T02:17:13.511Z,17.30
2022-11-28T02:20:24.347Z,15.40
2022-11-28T02:23:00.636Z,15.32
2022-11-28T02:25:54.799Z,15.43
2022-11-28T02:29:02.830Z,19.13
2022-11-28T02:31:52.702Z,16.25
2022-11-28T02:34:29.824Z,21.75
2022-11-28T02:37:05.935Z,18.38
2022-11-28T02:39:40.816Z,17.02
2022-11-28T02:42:17.454Z,16.42
2022-11-28T02:44:53.464Z,15.43
2022-11-28T02:47:27.070Z,16.10
2022-11-28T02:50:00.118Z,17.38
2022-11-28T02:52:34.020Z,17.73
2022-11-28T02:55:03.054Z,16.23
2022-11-28T02:57:36.417Z,16.80
2022-11-28T03:00:20.335Z,16.23
2022-11-28T03:02:53.043Z,17.85
2022-11-28T03:05:28.515Z,18.05
2022-11-28T03:08:06.376Z,17.45
2022-11-28T03:10:41.779Z,17.77
2022-11-28T03:13:17.999Z,18.98
2022-11-28T03:15:55.494Z,16.90
2022-11-28T03:21:03.327Z,16.05
2022-11-28T03:23:38.320Z,18.00
2022-11-28T03:26:10.905Z,20.65
2022-11-28T03:28:45.291Z,15.48
2022-11-28T03:31:17.948Z,18.35
2022-11-28T03:33:51.111Z,16.65
2022-11-28T03:36:24.092Z,15.70
2022-11-28T03:38:57.928Z,16.17
2022-11-28T03:41:32.090Z,18.60
2022-11-28T03:44:02.140Z,15.40
2022-11-28T03:46:37.788Z,17.27
2022-11-28T03:49:09.575Z,17.98
2022-11-28T03:51:43.134Z,16.13
2022-11-28T03:54:15.233Z,17.27
2022-11-28T03:56:53.877Z,18.48
2022-11-28T03:59:27.024Z,15.38
2022-11-28T04:02:02.217Z,19.38
2022-11-28T04:04:36.958Z,17.92
2022-11-28T04:07:13.512Z,15.13
2022-11-28T04:09:46.797Z,15.68
2022-11-28T04:12:22.805Z,22.30
2022-11-28T04:14:55.270Z,16.02
2022-11-28T04:17:30.873Z,16.60
2022-11-28T04:20:07.234Z,16.13
2022-11-28T04:22:43.077Z,18.48
2022-11-28T04:25:15.103Z,15.15
2022-11-28T04:27:48.862Z,16.55
2022-11-28T04:30:17.425Z,17.27
2022-11-28T04:32:50.496Z,18.40
2022-11-28T04:35:24.159Z,17.10
2022-11-28T04:37:55.845Z,15.25
2022-11-28T04:40:26.968Z,16.58
2022-11-28T04:42:58.551Z,17.25
2022-11-28T04:45:31.708Z,15.35
2022-11-28T04:48:00.141Z,15.85
2022-11-28T04:50:33.509Z,15.13
2022-11-28T04:53:11.527Z,17.52
2022-11-28T04:55:45.405Z,15.57
2022-11-28T04:58:17.312Z,16.45
2022-11-28T05:00:46.749Z,17.75
2022-11-28T05:03:15.125Z,16.02
2022-11-28T05:05:46.014Z,19.55
2022-11-28T05:08:16.023Z,16.73
2022-11-28T05:10:44.304Z,16.10
2022-11-28T05:13:12.544Z,15.05
2022-11-28T05:15:40.980Z,18.67
2022-11-28T05:18:09.353Z,16.58
2022-11-28T05:20:39.033Z,15.55
2022-11-28T05:23:07.659Z,19.00
2022-11-28T05:25:39.039Z,16.02
2022-11-28T05:28:07.403Z,15.60
2022-11-28T05:30:35.570Z,15.88
2022-11-28T05:33:03.850Z,16.40
2022-11-28T05:35:32.092Z,18.48
2022-11-28T05:38:00.370Z,18.27
2022-11-28T05:40:28.697Z,18.50
2022-11-28T05:42:58.340Z,16.30
2022-11-28T05:45:26.612Z,15.55
2022-11-28T05:47:54.935Z,15.07
2022-11-28T05:50:23.107Z,17.75
2022-11-28T05:52:51.392Z,15.57
2022-11-28T05:55:19.875Z,18.63
2022-11-28T05:57:48.148Z,15.48
2022-11-28T06:00:18.873Z,18.60
2022-11-28T06:02:47.180Z,17.85
2022-11-28T06:05:35.143Z,17.73
2022-11-28T06:08:03.890Z,16.20
2022-11-28T06:10:32.440Z,19.38
2022-11-28T06:13:00.724Z,16.58
2022-11-28T06:15:34.903Z,17.50
2022-11-28T06:18:05.709Z,19.77
2022-11-28T06:20:36.067Z,18.13
2022-11-28T06:23:04.374Z,19.48
2022-11-28T06:25:32.640Z,20.38
2022-11-28T06:28:00.844Z,20.15
2022-11-28T06:30:30.562Z,20.13
2022-11-28T06:32:58.770Z,23.58
2022-11-28T06:35:27.031Z,19.92
2022-11-28T06:37:55.312Z,19.55
2022-11-28T06:40:23.534Z,25.67
2022-11-28T06:42:51.788Z,20.55
2022-11-28T06:45:20.053Z,21.23
2022-11-28T06:47:49.699Z,21.60
2022-11-28T06:50:18.042Z,24.33
2022-11-28T06:52:46.325Z,21.10
2022-11-28T06:55:14.603Z,20.17
2022-11-28T06:57:42.795Z,23.58
2022-11-28T07:00:11.971Z,23.90
2022-11-28T07:02:40.348Z,28.20
2022-11-28T07:05:10.884Z,24.13
2022-11-28T07:07:53.244Z,25.70
2022-11-28T07:10:23.135Z,22.75
2022-11-28T07:12:54.938Z,26.25
2022-11-28T07:15:23.593Z,25.63
2022-11-28T07:17:51.865Z,23.48
2022-11-28T07:20:21.841Z,25.67
2022-11-28T07:22:50.305Z,25.48
2022-11-28T07:25:18.638Z,28.42
2022-11-28T07:27:46.853Z,28.17
2022-11-28T07:30:15.868Z,28.02
2022-11-28T07:32:44.229Z,29.58
2022-11-28T07:35:12.564Z,25.33
2022-11-28T07:37:42.168Z,25.30
2022-11-28T07:40:10.846Z,27.27
2022-11-28T07:42:39.094Z,27.95
2022-11-28T07:45:08.264Z,25.63
2022-11-28T07:47:36.592Z,29.08
2022-11-28T07:50:05.683Z,24.40
2022-11-28T07:52:33.946Z,30.00
2022-11-28T07:55:03.597Z,28.17
2022-11-28T07:57:31.880Z,28.30
2022-11-28T08:00:00.175Z,29.08
2022-11-28T08:02:32.490Z,27.45
2022-11-28T08:05:01.024Z,26.20
2022-11-28T08:07:29.582Z,30.05
2022-11-28T08:09:57.942Z,26.13
2022-11-28T08:12:27.595Z,26.83
2022-11-28T08:14:55.947Z,28.85
2022-11-28T08:17:24.199Z,29.52
2022-11-28T08:19:52.474Z,31.00
2022-11-28T08:22:20.769Z,30.67
2022-11-28T08:24:49.048Z,30.80
2022-11-28T08:27:17.350Z,29.08
2022-11-28T08:29:50.527Z,30.02
2022-11-28T08:32:21.579Z,30.75
2022-11-28T08:34:49.832Z,30.50
2022-11-28T08:37:18.107Z,32.63
2022-11-28T08:39:46.569Z,31.45
2022-11-28T08:42:14.836Z,29.23
2022-11-28T08:44:43.132Z,29.95
2022-11-28T08:47:12.750Z,34.72
2022-11-28T08:49:41.244Z,42.78
2022-11-28T08:52:09.744Z,33.65
2022-11-28T08:54:38.123Z,34.95
2022-11-28T08:57:06.806Z,37.60
2022-11-28T08:59:35.035Z,61.58
2022-11-28T09:02:03.305Z,43.28
2022-11-28T09:04:32.966Z,41.35
2022-11-28T09:07:01.238Z,31.02
2022-11-28T09:09:32.904Z,64.07
2022-11-28T09:12:01.344Z,41.88
2022-11-28T09:14:29.651Z,35.83
2022-11-28T09:16:57.968Z,45.25
2022-11-28T09:19:26.345Z,30.95
2022-11-28T09:21:57.904Z,33.03
2022-11-28T09:24:26.576Z,30.30
2022-11-28T09:26:55.009Z,28.52
2022-11-28T09:29:23.954Z,33.55
2022-11-28T09:31:52.350Z,29.60
2022-11-28T09:34:21.446Z,30.23
2022-11-28T09:36:50.219Z,32.67
2022-11-28T09:39:19.852Z,30.80
2022-11-28T09:42:03.230Z,32.85
2022-11-28T09:44:38.025Z,31.45
2022-11-28T09:47:13.419Z,30.00
2022-11-28T09:49:47.626Z,27.30
2022-11-28T09:52:27.779Z,30.70
2022-11-28T09:55:06.180Z,29.17
2022-11-28T09:57:38.433Z,27.48
2022-11-28T10:00:12.165Z,30.23
2022-11-28T10:02:49.412Z,31.25
2022-11-28T10:05:24.410Z,28.10
2022-11-28T10:08:12.611Z,28.48
2022-11-28T10:10:50.813Z,28.45
2022-11-28T10:13:22.216Z,32.20
2022-11-28T10:15:59.153Z,32.65
2022-11-28T10:18:36.682Z,27.80
2022-11-28T10:21:11.434Z,28.63
2022-11-28T10:23:43.079Z,31.55
2022-11-28T10:26:22.160Z,29.58
2022-11-28T10:28:53.870Z,30.00
2022-11-28T10:31:32.791Z,27.02
2022-11-28T10:34:08.406Z,29.40
2022-11-28T10:36:51.854Z,29.10
2022-11-28T10:39:20.159Z,29.48
2022-11-28T10:42:12.550Z,28.95
2022-11-28T10:44:53.903Z,27.15
2022-11-28T10:47:31.925Z,26.50
2022-11-28T10:50:05.293Z,30.55
2022-11-28T10:52:44.235Z,27.88
2022-11-28T10:55:28.019Z,26.83
2022-11-28T10:58:06.089Z,25.20
2022-11-28T11:00:36.033Z,25.63
2022-11-28T11:03:05.999Z,25.75
2022-11-28T11:05:36.266Z,28.13
2022-11-28T11:08:12.289Z,26.77
2022-11-28T11:10:43.835Z,26.27
2022-11-28T11:13:17.497Z,27.40
2022-11-28T11:15:46.733Z,26.23
2022-11-28T11:18:26.767Z,39.70
2022-11-28T11:21:09.233Z,52.03
2022-11-28T11:23:38.627Z,28.27
2022-11-28T11:26:10.267Z,63.08
2022-11-28T11:28:45.547Z,46.72
2022-11-28T11:31:21.877Z,35.70
2022-11-28T11:33:53.221Z,33.45
2022-11-28T11:36:27.901Z,35.78
2022-11-28T11:39:25.400Z,33.40
2022-11-28T11:42:12.065Z,35.35
2022-11-28T11:44:41.922Z,31.35
2022-11-28T11:47:11.130Z,37.92
2022-11-28T11:49:42.896Z,51.28
2022-11-28T11:52:18.977Z,44.10
2022-11-28T11:55:08.799Z,37.95
2022-11-28T11:57:39.895Z,39.80
2022-11-28T12:00:17.045Z,36.60
2022-11-28T12:02:47.686Z,35.97
2022-11-28T12:05:19.746Z,37.08
2022-11-28T12:07:56.511Z,33.10
2022-11-28T12:10:27.659Z,31.30
2022-11-28T12:12:56.381Z,31.60
2022-11-28T12:15:40.228Z,37.90
2022-11-28T12:18:21.664Z,31.25
2022-11-28T12:21:04.701Z,48.28
2022-11-28T12:24:06.028Z,36.20
2022-11-28T12:26:42.620Z,43.30
2022-11-28T12:29:24.276Z,31.80
2022-11-28T12:32:06.455Z,37.30
2022-11-28T12:34:46.141Z,40.45
2022-11-28T12:37:42.540Z,41.85
2022-11-28T12:40:32.213Z,49.35
2022-11-28T12:43:13.383Z,32.72
2022-11-28T12:45:53.163Z,34.10
2022-11-28T12:49:00.229Z,31.55
2022-11-28T12:51:40.241Z,29.52
2022-11-28T12:54:32.151Z,31.83
2022-11-28T12:57:09.908Z,33.20
2022-11-28T12:59:45.188Z,33.05
2022-11-28T13:02:27.464Z,29.60
2022-11-28T13:05:14.697Z,39.83
2022-11-28T13:07:54.181Z,33.05
2022-11-28T13:10:28.371Z,32.47
2022-11-28T13:13:02.228Z,29.00
2022-11-28T13:15:44.894Z,57.92
2022-11-28T13:18:26.192Z,31.65
2022-11-28T13:21:01.697Z,48.45
2022-11-28T13:23:37.792Z,55.58
2022-11-28T13:26:12.199Z,45.10
2022-11-28T13:28:49.306Z,35.20
2022-11-28T13:31:24.430Z,33.42
2022-11-28T13:33:54.307Z,41.35
2022-11-28T13:39:38.017Z,36.70
2022-11-28T13:42:58.836Z,64.82
2022-11-28T13:45:26.679Z,40.33
2022-11-28T13:48:00.364Z,72.38
2022-11-28T13:51:00.787Z,44.58
2022-11-28T13:53:30.639Z,34.72
2022-11-28T13:56:22.893Z,36.70
2022-11-28T13:58:54.899Z,28.08
2022-11-28T14:01:25.835Z,35.10
2022-11-28T14:04:07.768Z,36.17
2022-11-28T14:06:44.727Z,35.58
2022-11-28T14:09:29.397Z,33.20
2022-11-28T14:12:15.099Z,57.95
2022-11-28T14:15:10.595Z,54.20
2022-11-28T14:17:54.052Z,27.77
2022-11-28T14:20:32.279Z,27.15
2022-11-28T14:23:20.013Z,30.05
2022-11-28T14:25:51.622Z,29.35
2022-11-28T14:28:27.144Z,27.15
2022-11-28T14:31:04.034Z,26.73
2022-11-28T14:33:38.110Z,26.15
2022-11-28T14:36:24.821Z,25.38
2022-11-28T14:39:12.131Z,29.65
2022-11-28T14:42:44.081Z,28.77
2022-11-28T14:45:42.940Z,30.05
2022-11-28T14:48:30.697Z,29.23
2022-11-28T14:51:02.543Z,29.25
2022-11-28T14:53:50.016Z,29.33
2022-11-28T14:56:28.013Z,32.10
2022-11-28T14:59:04.625Z,28.65
2022-11-28T15:01:47.235Z,28.70
2022-11-28T15:04:42.677Z,36.33
2022-11-28T15:07:24.298Z,50.67
2022-11-28T15:10:04.215Z,33.50
2022-11-28T15:12:47.590Z,32.58
2022-11-28T15:15:17.533Z,37.50
2022-11-28T15:17:52.579Z,41.83
2022-11-28T15:20:27.882Z,45.22
2022-11-28T15:22:56.245Z,37.03
2022-11-28T15:25:29.227Z,35.78
2022-11-28T15:28:13.423Z,32.95
2022-11-28T15:30:46.641Z,34.08
2022-11-28T15:33:16.512Z,36.53
2022-11-28T15:35:56.788Z,36.25
2022-11-28T15:38:25.900Z,34.35
2022-11-28T15:40:56.196Z,39.53
2022-11-28T15:43:25.331Z,61.70
2022-11-28T15:45:55.513Z,35.50
2022-11-28T15:48:39.002Z,37.67
2022-11-28T15:51:09.551Z,32.70
2022-11-28T15:53:42.353Z,45.17
2022-11-28T15:56:12.588Z,41.42
2022-11-28T15:58:41.960Z,56.65
2022-11-28T16:01:15.190Z,38.55
2022-11-28T16:03:51.128Z,39.58
2022-11-28T16:06:20.913Z,59.67
2022-11-28T16:08:53.004Z,52.55
2022-11-28T16:11:24.122Z,58.97
2022-11-28T16:13:55.349Z,45.42
2022-11-28T16:16:27.297Z,38.85
2022-11-28T16:19:00.000Z,42.20
2022-11-28T16:21:31.374Z,63.90
2022-11-28T16:24:00.754Z,65.85
2022-11-28T16:26:33.624Z,49.88
2022-11-28T16:29:12.766Z,52.38
2022-11-28T16:31:41.967Z,73.50
2022-11-28T16:34:15.007Z,63.33
2022-11-28T16:36:51.165Z,37.67
2022-11-28T16:39:19.770Z,42.83
2022-11-28T16:41:52.033Z,48.83
2022-11-28T16:44:22.549Z,47.60
2022-11-28T16:46:54.097Z,40.40
2022-11-28T16:49:38.089Z,45.53
2022-11-28T16:52:42.337Z,47.78
2022-11-28T16:55:42.003Z,46.05
2022-11-28T16:58:16.509Z,60.08
2022-11-28T17:00:48.048Z,49.15
2022-11-28T17:03:51.691Z,43.85
2022-11-28T17:06:24.443Z,49.80
2022-11-28T17:08:52.875Z,49.42
2022-11-28T17:11:23.763Z,47.58
2022-11-28T17:13:52.426Z,40.33
2022-11-28T17:16:24.100Z,45.67
2022-11-28T17:18:52.839Z,42.15
2022-11-28T17:21:32.301Z,47.22
2022-11-28T17:24:00.923Z,40.88
2022-11-28T17:26:29.213Z,40.60
2022-11-28T17:28:58.673Z,45.30
2022-11-28T17:31:26.790Z,42.45
2022-11-28T17:33:54.945Z,71.40
2022-11-28T17:36:24.330Z,37.13
2022-11-28T17:38:52.381Z,44.65
2022-11-28T17:41:23.251Z,55.00
2022-11-28T17:43:51.287Z,44.65
2022-11-28T17:46:21.499Z,58.45
2022-11-28T17:48:49.545Z,44.05
2022-11-28T17:51:17.949Z,38.10
2022-11-28T17:53:47.631Z,41.65
2022-11-28T17:56:15.723Z,48.63
2022-11-28T17:58:44.908Z,41.92
2022-11-28T18:01:16.512Z,45.53
2022-11-28T18:03:44.662Z,42.65
2022-11-28T18:06:17.563Z,45.63
2022-11-28T18:08:47.861Z,49.05
2022-11-28T18:11:16.996Z,43.95
2022-11-28T18:13:45.599Z,44.17
2022-11-28T18:16:17.102Z,43.47
2022-11-28T18:18:45.880Z,47.28
2022-11-28T18:21:15.734Z,38.10
2022-11-28T18:23:46.230Z,43.72
2022-11-28T18:26:18.307Z,49.67
2022-11-28T18:28:47.388Z,48.38
2022-11-28T18:31:18.816Z,45.17
2022-11-28T18:33:47.786Z,43.25
2022-11-28T18:36:18.117Z,38.15
2022-11-28T18:38:46.643Z,46.13
2022-11-28T18:41:17.623Z,44.58
2022-11-28T18:43:46.136Z,42.33
2022-11-28T18:46:16.003Z,40.72
2022-11-28T18:48:46.188Z,39.17
2022-11-28T18:51:15.157Z,42.95
2022-11-28T18:53:44.953Z,44.17
2022-11-28T18:56:15.632Z,41.13
2022-11-28T18:58:45.738Z,35.78
2022-11-28T19:01:16.994Z,50.47
2022-11-28T19:03:49.205Z,45.70
2022-11-28T19:06:19.717Z,48.10
2022-11-28T19:08:48.648Z,51.28
2022-11-28T19:11:18.558Z,48.58
2022-11-28T19:13:51.543Z,49.10
2022-11-28T19:16:21.631Z,48.25
2022-11-28T19:18:50.037Z,49.28
2022-11-28T19:21:20.841Z,49.28
2022-11-28T19:23:49.323Z,53.15
2022-11-28T19:26:20.750Z,55.28
2022-11-28T19:28:49.014Z,55.80
2022-11-28T19:31:20.354Z,78.30
2022-11-28T19:34:00.455Z,53.83
2022-11-28T19:36:31.811Z,48.22
2022-11-28T19:39:00.424Z,45.50
2022-11-28T19:41:31.016Z,47.75
2022-11-28T19:43:59.245Z,49.72
2022-11-28T19:46:35.047Z,57.50
2022-11-28T19:49:04.808Z,56.03
2022-11-28T19:51:33.009Z,56.88
2022-11-28T19:54:03.518Z,47.20
2022-11-28T19:56:34.333Z,43.25
2022-11-28T19:59:03.580Z,45.72
2022-11-28T20:01:31.850Z,45.60
2022-11-28T20:04:00.375Z,49.97
2022-11-28T20:06:31.103Z,56.20
2022-11-28T20:09:01.276Z,47.67
2022-11-28T20:11:34.131Z,58.97
2022-11-28T20:14:05.057Z,45.40
2022-11-28T20:16:33.754Z,47.95
2022-11-28T20:19:02.704Z,60.08
2022-11-28T20:21:32.009Z,52.35
2022-11-28T20:24:04.430Z,59.60
2022-11-28T20:26:39.242Z,54.63
2022-11-28T20:29:07.780Z,57.72
2022-11-28T20:31:37.986Z,61.38
2022-11-28T20:34:06.616Z,71.22
2022-11-28T20:36:36.274Z,68.15
2022-11-28T20:39:05.739Z,89.13
2022-11-28T20:41:33.962Z,155.80
2022-11-28T20:44:03.560Z,107.82
2022-11-28T20:46:35.464Z,146.30
2022-11-28T20:49:06.359Z,168.05
2022-11-28T20:51:36.714Z,198.13
2022-11-28T20:54:06.717Z,213.63
2022-11-28T20:57:05.208Z,85.07
2022-11-28T20:59:28.820Z,157.63
2022-11-28T21:01:56.947Z,199.38
2022-11-28T21:04:25.028Z,203.88
2022-11-28T21:06:53.176Z,154.63
2022-11-28T21:09:21.212Z,133.65
2022-11-28T21:11:57.275Z,215.43
2022-11-28T21:14:30.972Z,159.73
2022-11-28T21:16:59.754Z,197.73
2022-11-28T21:19:28.228Z,238.43
2022-11-28T21:21:56.515Z,142.02
2022-11-28T21:24:24.663Z,181.90
2022-11-28T21:26:54.271Z,180.82
2022-11-28T21:29:24.157Z,171.55
2022-11-28T21:31:54.533Z,270.98
2022-11-28T21:34:22.913Z,233.30
2022-11-28T21:36:51.208Z,211.73
2022-11-28T21:39:22.028Z,213.85
2022-11-28T21:41:51.993Z,183.15
2022-11-28T21:44:20.201Z,190.10
2022-11-28T21:46:48.181Z,211.80
2022-11-28T21:49:18.620Z,161.63
2022-11-28T21:51:46.794Z,201.02
2022-11-28T21:54:15.355Z,196.68
2022-11-28T21:56:45.895Z,236.25
2022-11-28T21:59:13.927Z,241.15
2022-11-28T22:01:42.348Z,172.52
2022-11-28T22:04:11.469Z,195.27
2022-11-28T22:06:41.843Z,278.25
2022-11-28T22:09:10.645Z,144.55
2022-11-28T22:11:40.729Z,226.50
2022-11-28T22:14:09.034Z,242.65
2022-11-28T22:16:38.177Z,275.52
2022-11-28T22:19:06.427Z,173.88
2022-11-28T22:21:53.926Z,245.68
2022-11-28T22:24:25.452Z,196.35
2022-11-28T22:26:56.244Z,177.80
2022-11-28T22:29:25.231Z,281.83
2022-11-28T22:31:55.031Z,188.80
2022-11-28T22:34:24.260Z,210.63
2022-11-28T22:36:52.451Z,210.00
2022-11-28T22:39:21.726Z,266.38
2022-11-28T22:41:51.425Z,298.83
2022-11-28T22:44:20.938Z,182.23
2022-11-28T22:46:49.030Z,243.82
2022-11-28T22:49:17.232Z,205.57
2022-11-28T22:51:45.489Z,242.95
2022-11-28T22:54:14.764Z,196.27
2022-11-28T22:56:42.765Z,307.92
2022-11-28T22:59:15.411Z,237.93
2022-11-28T23:01:44.346Z,203.65
2022-11-28T23:04:13.189Z,325.35
2022-11-28T23:06:41.393Z,279.33
2022-11-28T23:09:11.559Z,253.10
2022-11-28T23:11:41.210Z,256.58
2022-11-28T23:14:11.489Z,191.02
2022-11-28T23:16:42.700Z,193.00
2022-11-28T23:19:14.113Z,150.63
2022-11-28T23:21:43.857Z,190.93
2022-11-28T23:24:14.909Z,208.55
2022-11-28T23:26:44.785Z,244.85
2022-11-28T23:29:14.880Z,225.88
2022-11-28T23:31:46.837Z,209.07
2022-11-28T23:34:16.136Z,218.25
2022-11-28T23:36:46.177Z,211.05
2022-11-28T23:39:16.639Z,283.20
2022-11-28T23:41:45.258Z,237.82
2022-11-28T23:44:14.318Z,209.52
2022-11-28T23:46:44.462Z,182.98
2022-11-28T23:49:13.078Z,145.98
2022-11-28T23:51:42.279Z,188.55
2022-11-28T23:54:11.930Z,244.05
2022-11-28T23:56:41.190Z,151.95
2022-11-28T23:59:10.373Z,236.75
